Time;durP1;ratioP1;P1;durP2;ratioP2;P2;SDS_P1;SDS_P2;PMS_P1;PMS_P2;Temp;Humidity;BMP_temperature;BMP_pressure;BME280_temperature;BME280_humidity;BME280_pressure;Samples;Min_cycle;Max_cycle;Signal;HPM_P1;HPM_P2
2021/04/05 00:01:45;;;;;;;5.03;4.50;;;;;;;-0.34;86.52;95396.44;5081694;28;20493;-71
2021/04/05 00:04:12;;;;;;;6.23;4.87;;;;;;;-0.17;86.04;95399.44;5077370;28;20233;-73
2021/04/05 00:06:39;;;;;;;5.10;3.53;;;;;;;-0.07;85.55;95390.78;5077149;28;20226;-71
2021/04/05 00:09:07;;;;;;;3.63;3.33;;;;;;;0.24;84.95;95381.28;5078712;28;20245;-72
2021/04/05 00:11:34;;;;;;;4.77;4.47;;;;;;;0.29;84.13;95375.72;5077758;28;20233;-72
2021/04/05 00:14:01;;;;;;;5.23;4.73;;;;;;;0.36;83.61;95376.00;5075130;28;20537;-71
2021/04/05 00:16:28;;;;;;;5.17;4.73;;;;;;;0.70;82.39;95364.44;5078973;28;20630;-71
2021/04/05 00:18:55;;;;;;;4.47;3.37;;;;;;;0.96;81.35;95361.38;5077565;28;20263;-72
2021/04/05 00:21:24;;;;;;;4.07;3.87;;;;;;;1.04;80.88;95361.53;5075709;28;20262;-71
2021/04/05 00:23:53;;;;;;;4.20;3.90;;;;;;;1.22;80.02;95365.13;5082641;28;20265;-71
2021/04/05 00:26:20;;;;;;;4.77;3.30;;;;;;;1.26;79.48;95356.09;5080489;28;20278;-71
2021/04/05 00:28:49;;;;;;;5.10;4.63;;;;;;;1.32;79.23;95355.56;5086709;28;20737;-71
2021/04/05 00:31:18;;;;;;;3.53;3.20;;;;;;;1.28;79.78;95342.97;5083831;28;20349;-72
2021/04/05 00:33:45;;;;;;;4.23;3.90;;;;;;;1.34;79.83;95342.44;5084198;28;20217;-71
2021/04/05 00:36:12;;;;;;;3.63;3.37;;;;;;;1.15;79.92;95338.03;5082246;28;20218;-71
2021/04/05 00:38:39;;;;;;;3.57;3.27;;;;;;;1.09;80.88;95333.38;5086799;28;20225;-71
2021/04/05 00:41:09;;;;;;;4.93;4.03;;;;;;;0.97;80.42;95329.25;5079733;28;20401;-71
2021/04/05 00:43:37;;;;;;;3.50;3.20;;;;;;;0.78;81.09;95336.03;5077761;28;20220;-72
2021/04/05 00:46:07;;;;;;;4.03;2.43;;;;;;;0.62;81.44;95327.91;5087343;28;20235;-71
2021/04/05 00:48:34;;;;;;;3.50;3.20;;;;;;;0.43;82.80;95330.44;5087557;28;20225;-71
2021/04/05 00:51:07;;;;;;;5.30;3.40;;;;;;;0.28;82.82;95325.59;5075853;28;20222;-71
2021/04/05 00:53:35;;;;;;;3.77;3.50;;;;;;;-0.05;82.91;95329.22;5085961;28;20237;-71
2021/04/05 00:56:03;;;;;;;4.03;3.73;;;;;;;-0.18;82.24;95345.91;5070782;28;20302;-71
2021/04/05 00:58:31;;;;;;;3.70;3.50;;;;;;;-0.26;82.10;95330.19;5078505;28;20301;-72
2021/04/05 01:01:01;;;;;;;4.67;4.33;;;;;;;-0.38;83.10;95319.84;5083863;28;20229;-72
2021/04/05 01:03:31;;;;;;;3.90;2.73;;;;;;;-0.45;84.17;95329.09;5074858;28;20243;-71
2021/04/05 01:06:01;;;;;;;4.43;3.17;;;;;;;-0.45;84.50;95318.72;5082159;28;20658;-71
2021/04/05 01:08:28;;;;;;;3.20;2.87;;;;;;;-0.52;84.74;95320.16;5078002;28;20245;-71
2021/04/05 01:10:55;;;;;;;6.67;3.23;;;;;;;-0.49;84.77;95325.09;5076004;28;20700;-71
2021/04/05 01:13:23;;;;;;;3.00;2.53;;;;;;;-0.49;84.85;95312.13;5085572;28;20254;-71
2021/04/05 01:15:49;;;;;;;4.93;4.53;;;;;;;-0.50;85.46;95309.66;5079884;28;20280;-72
2021/04/05 01:18:17;;;;;;;6.70;4.87;;;;;;;-0.17;85.36;95295.72;5075516;28;20224;-71
2021/04/05 01:20:46;;;;;;;8.60;3.33;;;;;;;0.15;84.07;95291.25;5085181;28;20265;-71
2021/04/05 01:23:15;;;;;;;3.47;3.23;;;;;;;0.19;83.62;95271.88;5085967;28;20594;-72
2021/04/05 01:25:42;;;;;;;3.60;3.37;;;;;;;0.35;82.29;95270.56;5078441;28;20213;-72
2021/04/05 01:28:10;;;;;;;4.13;3.83;;;;;;;0.34;82.11;95279.31;5082861;28;20243;-72
2021/04/05 01:30:39;;;;;;;3.37;3.10;;;;;;;0.38;82.68;95270.31;5065161;28;20697;-71
2021/04/05 01:33:08;;;;;;;4.23;3.40;;;;;;;0.34;82.57;95268.91;5077565;28;20310;-72
2021/04/05 01:35:39;;;;;;;5.13;3.93;;;;;;;0.25;82.36;95268.75;5065920;28;20482;-72
2021/04/05 01:38:06;;;;;;;4.37;4.07;;;;;;;0.06;82.03;95266.06;5081472;28;20278;-72
2021/04/05 01:40:36;;;;;;;4.30;3.10;;;;;;;-0.15;80.56;95267.88;5078424;28;20268;-71
2021/04/05 01:43:03;;;;;;;6.53;3.63;;;;;;;-0.52;81.39;95272.69;5081461;28;20226;-71
2021/04/05 01:45:31;;;;;;;2.63;2.43;;;;;;;-0.77;82.12;95266.91;5082481;28;20240;-71
2021/04/05 01:47:58;;;;;;;3.70;3.50;;;;;;;-0.93;83.01;95264.72;5082203;28;20578;-71
2021/04/05 01:50:25;;;;;;;3.90;3.57;;;;;;;-1.07;83.28;95257.28;5079013;28;20793;-71
2021/04/05 01:52:52;;;;;;;4.20;3.53;;;;;;;-1.21;84.21;95258.34;5085256;28;20292;-72
2021/04/05 01:55:20;;;;;;;4.63;4.23;;;;;;;-1.18;85.25;95249.53;5083276;28;20313;-71
2021/04/05 01:57:48;;;;;;;5.10;3.20;;;;;;;-1.01;86.61;95245.56;5082525;28;20636;-71
2021/04/05 02:00:22;;;;;;;3.33;2.97;;;;;;;-0.73;86.06;95238.97;5083240;28;20586;-71
2021/04/05 02:02:49;;;;;;;3.80;3.50;;;;;;;-0.39;85.53;95224.88;5080542;28;20222;-71
2021/04/05 02:05:17;;;;;;;5.50;3.13;;;;;;;-0.18;84.59;95222.28;5081358;28;20657;-72
2021/04/05 02:07:44;;;;;;;3.30;3.10;;;;;;;0.03;83.56;95224.03;5081849;28;20699;-72
2021/04/05 02:10:17;;;;;;;4.20;3.67;;;;;;;0.16;83.01;95228.00;5078306;28;20253;-72
2021/04/05 02:12:46;;;;;;;3.40;3.20;;;;;;;0.36;82.40;95223.69;5067560;28;20222;-72
2021/04/05 02:15:15;;;;;;;3.73;3.47;;;;;;;0.50;81.35;95219.94;5065735;28;20221;-72
2021/04/05 02:17:44;;;;;;;4.07;3.77;;;;;;;0.55;81.36;95215.19;5080015;28;20246;-71
2021/04/05 02:20:13;;;;;;;3.23;2.93;;;;;;;0.53;80.46;95217.06;5079661;28;20245;-71
2021/04/05 02:22:42;;;;;;;4.17;3.77;;;;;;;0.78;80.63;95203.56;5082473;28;20225;-71
2021/04/05 02:25:12;;;;;;;3.83;3.53;;;;;;;0.88;79.88;95210.56;5068867;28;20266;-71
2021/04/05 02:27:42;;;;;;;3.13;2.93;;;;;;;0.77;80.36;95211.50;5067327;28;20309;-72
2021/04/05 02:30:10;;;;;;;2.93;2.73;;;;;;;0.44;79.55;95220.44;5077974;28;20214;-71
2021/04/05 02:32:39;;;;;;;3.40;3.07;;;;;;;0.22;79.48;95211.13;5078387;28;20237;-72
2021/04/05 02:35:07;;;;;;;3.63;3.33;;;;;;;0.02;79.36;95215.41;5077738;28;20604;-71
2021/04/05 02:37:34;;;;;;;3.37;2.80;;;;;;;-0.31;79.63;95204.34;5080693;28;20637;-71
2021/04/05 02:40:02;;;;;;;2.13;2.03;;;;;;;-0.55;81.11;95203.78;5079502;28;20243;-72
2021/04/05 02:42:29;;;;;;;3.47;3.10;;;;;;;-0.79;81.59;95195.47;5066703;28;20428;-72
2021/04/05 02:44:56;;;;;;;2.70;2.50;;;;;;;-1.02;82.52;95200.72;5083482;28;20712;-71
2021/04/05 02:47:25;;;;;;;5.77;3.53;;;;;;;-1.17;83.16;95197.63;5080483;28;20336;-71
2021/04/05 02:49:53;;;;;;;3.50;3.27;;;;;;;-0.94;84.63;95182.81;5083347;28;20306;-72
2021/04/05 02:52:20;;;;;;;3.63;2.50;;;;;;;-0.28;83.69;95175.56;5084416;28;20218;-71
2021/04/05 02:54:47;;;;;;;3.37;3.07;;;;;;;0.10;82.23;95163.69;5081471;28;20248;-71
2021/04/05 02:57:15;;;;;;;2.77;2.53;;;;;;;0.44;80.76;95160.75;5073970;28;20721;-71
2021/04/05 02:59:42;;;;;;;2.43;1.87;;;;;;;0.74;79.00;95154.66;5082424;28;20707;-72
2021/04/05 03:02:09;;;;;;;3.13;2.53;;;;;;;0.95;77.97;95144.13;5077969;28;20245;-72
2021/04/05 03:04:37;;;;;;;2.30;2.10;;;;;;;1.08;77.70;95140.25;5081898;28;20225;-71
2021/04/05 03:07:05;;;;;;;3.33;2.20;;;;;;;1.20;76.88;95138.34;5079793;28;20231;-71
2021/04/05 03:09:32;;;;;;;2.47;2.27;;;;;;;1.31;76.75;95130.38;5071670;28;21366;-71
2021/04/05 03:12:00;;;;;;;3.13;2.83;;;;;;;1.38;75.99;95126.28;5075414;28;20290;-72
2021/04/05 03:14:28;;;;;;;1.90;1.80;;;;;;;1.38;75.95;95118.47;5077701;28;20408;-71
2021/04/05 03:16:56;;;;;;;2.73;2.37;;;;;;;1.37;75.77;95114.25;5069254;28;20225;-71
2021/04/05 03:19:24;;;;;;;7.23;2.40;;;;;;;1.40;75.12;95107.94;5083558;28;20279;-71
2021/04/05 03:21:52;;;;;;;2.90;2.70;;;;;;;1.34;76.18;95106.72;5073430;28;20217;-72
2021/04/05 03:24:20;;;;;;;5.57;4.90;;;;;;;1.35;75.75;95110.94;5075151;28;20225;-71
2021/04/05 03:26:47;;;;;;;3.93;2.83;;;;;;;1.38;75.33;95105.47;5072635;28;20702;-72
2021/04/05 03:29:17;;;;;;;2.57;2.37;;;;;;;1.24;76.92;95103.31;5076323;28;20304;-72
2021/04/05 03:31:46;;;;;;;3.90;2.00;;;;;;;1.23;76.79;95093.06;5076883;28;20589;-72
2021/04/05 03:34:20;;;;;;;3.83;3.63;;;;;;;1.24;77.17;95095.53;5069205;28;20824;-71
2021/04/05 03:36:52;;;;;;;6.50;2.97;;;;;;;1.09;77.49;95089.94;5078263;28;20229;-72
2021/04/05 03:39:21;;;;;;;1.93;1.73;;;;;;;0.96;77.27;95093.81;5071220;28;20222;-71
2021/04/05 03:41:54;;;;;;;3.53;3.23;;;;;;;0.94;78.08;95086.16;5075913;28;20344;-71
2021/04/05 03:44:28;;;;;;;4.27;3.87;;;;;;;0.95;77.87;95087.78;5071750;28;20333;-71
2021/04/05 03:46:59;;;;;;;2.90;2.30;;;;;;;1.04;78.09;95079.16;5070724;28;20214;-71
2021/04/05 03:49:32;;;;;;;2.37;1.93;;;;;;;1.03;77.36;95085.31;5078279;28;20308;-71
2021/04/05 03:52:03;;;;;;;6.03;3.93;;;;;;;1.13;76.70;95085.28;5076817;28;20222;-71
2021/04/05 03:54:43;;;;;;;1.90;1.57;;;;;;;1.29;76.35;95080.34;5064440;28;20447;-71
2021/04/05 03:57:12;;;;;;;1.93;1.83;;;;;;;1.39;75.08;95077.69;5077169;28;20578;-72
2021/04/05 03:59:44;;;;;;;3.93;3.27;;;;;;;1.40;75.50;95068.94;5081721;28;20756;-71
2021/04/05 04:02:15;;;;;;;3.30;2.20;;;;;;;1.54;74.83;95063.25;5080635;28;20229;-71
2021/04/05 04:04:53;;;;;;;3.07;2.87;;;;;;;1.51;74.04;95062.75;5082406;28;20385;-71
2021/04/05 04:07:29;;;;;;;2.27;1.70;;;;;;;1.56;73.65;95060.53;5078098;28;20301;-71
2021/04/05 04:09:58;;;;;;;4.83;3.07;;;;;;;1.68;73.10;95056.78;5067484;28;20279;-71
2021/04/05 04:12:26;;;;;;;1.77;1.67;;;;;;;1.79;73.21;95051.38;5075570;28;20249;-71
2021/04/05 04:14:55;;;;;;;7.60;2.80;;;;;;;1.71;73.12;95043.47;5073690;28;20266;-71
2021/04/05 04:17:24;;;;;;;2.43;1.80;;;;;;;1.88;72.36;95036.69;5075502;28;20225;-71
2021/04/05 04:19:52;;;;;;;1.97;1.77;;;;;;;1.93;71.68;95032.69;5079933;28;20213;-71
2021/04/05 04:22:20;;;;;;;3.63;2.60;;;;;;;1.98;71.18;95024.44;5076492;28;20495;-71
2021/04/05 04:24:47;;;;;;;1.97;1.77;;;;;;;2.01;72.25;95018.91;5082607;28;20697;-71
2021/04/05 04:27:15;;;;;;;2.50;1.83;;;;;;;2.03;71.51;95018.78;5079132;28;20222;-71
2021/04/05 04:29:51;;;;;;;4.20;2.17;;;;;;;1.99;71.69;95016.47;5082629;28;20544;-71
2021/04/05 04:32:18;;;;;;;3.23;2.43;;;;;;;1.90;72.20;95012.16;5063773;28;20218;-68
2021/04/05 04:34:45;;;;;;;2.30;2.17;;;;;;;1.94;71.60;95016.09;5063102;28;20217;-69
2021/04/05 04:37:12;;;;;;;2.07;1.83;;;;;;;1.92;72.07;95005.03;5081506;28;20674;-69
2021/04/05 04:39:39;;;;;;;3.67;1.93;;;;;;;1.91;72.02;94998.16;5075898;28;20791;-68
2021/04/05 04:42:08;;;;;;;1.90;1.73;;;;;;;1.99;71.65;94998.25;5070555;28;20320;-68
2021/04/05 04:44:36;;;;;;;3.30;3.03;;;;;;;1.94;71.65;95002.28;5081693;28;20233;-69
2021/04/05 04:47:03;;;;;;;2.73;1.87;;;;;;;1.79;72.96;95004.56;5081407;28;20252;-69
2021/04/05 04:49:30;;;;;;;2.90;2.27;;;;;;;1.77;72.80;94998.69;5071089;28;20268;-69
2021/04/05 04:51:57;;;;;;;2.90;2.70;;;;;;;1.71;74.64;95001.84;5066610;28;20229;-69
2021/04/05 04:54:25;;;;;;;2.03;1.93;;;;;;;1.69;73.65;94996.81;5076614;28;20690;-69
2021/04/05 04:56:52;;;;;;;2.23;2.03;;;;;;;1.91;72.99;94999.94;5072500;28;20239;-69
2021/04/05 04:59:21;;;;;;;1.60;1.50;;;;;;;1.91;73.03;94998.16;5073772;28;20229;-68
2021/04/05 05:01:48;;;;;;;1.80;1.70;;;;;;;1.85;72.74;94996.19;5066328;28;21215;-69
2021/04/05 05:04:17;;;;;;;2.73;2.30;;;;;;;1.82;73.41;95001.66;5081792;28;20225;-69
2021/04/05 05:06:45;;;;;;;2.23;1.87;;;;;;;1.97;72.65;94992.38;5079144;28;20247;-69
2021/04/05 05:09:13;;;;;;;2.53;2.33;;;;;;;1.97;72.54;94991.56;5082610;28;20584;-69
2021/04/05 05:11:40;;;;;;;2.20;2.00;;;;;;;2.14;73.19;94992.56;5082010;28;20270;-69
2021/04/05 05:14:07;;;;;;;2.87;2.67;;;;;;;2.40;71.58;94988.22;5081364;28;20226;-69
2021/04/05 05:16:36;;;;;;;5.40;2.60;;;;;;;2.63;70.03;94987.72;5079680;28;20229;-69
2021/04/05 05:19:04;;;;;;;5.43;1.90;;;;;;;2.75;69.09;94983.94;5080571;28;20721;-69
2021/04/05 05:21:34;;;;;;;1.97;1.87;;;;;;;2.93;68.75;94973.47;5084135;28;20234;-68
2021/04/05 05:24:04;;;;;;;3.67;1.93;;;;;;;3.04;68.66;94971.41;5080285;28;20297;-68
2021/04/05 05:26:33;;;;;;;2.07;1.97;;;;;;;2.95;68.76;94966.31;5080156;28;20304;-69
2021/04/05 05:29:04;;;;;;;4.10;2.40;;;;;;;3.08;68.95;94972.72;5085321;28;20253;-69
2021/04/05 05:31:33;;;;;;;2.90;1.87;;;;;;;3.05;69.04;94967.00;5074321;28;20591;-69
2021/04/05 05:34:01;;;;;;;2.07;1.60;;;;;;;3.10;68.94;94968.16;5081154;28;20310;-69
2021/04/05 05:36:29;;;;;;;1.47;1.37;;;;;;;3.24;69.36;94966.78;5084651;28;20691;-69
2021/04/05 05:38:59;;;;;;;1.73;1.60;;;;;;;3.07;69.61;94955.44;5082111;28;20302;-69
2021/04/05 05:41:41;;;;;;;1.70;1.60;;;;;;;3.24;68.66;94960.75;5079153;28;20393;-70
2021/04/05 05:44:13;;;;;;;1.90;1.80;;;;;;;3.11;69.66;94954.19;5078082;28;20784;-69
2021/04/05 05:46:44;;;;;;;4.57;2.10;;;;;;;3.14;69.30;94946.03;5077306;28;20238;-69
2021/04/05 05:49:21;;;;;;;2.50;1.97;;;;;;;3.07;70.52;94950.25;5070574;28;20562;-69
2021/04/05 05:52:05;;;;;;;8.07;1.67;;;;;;;3.03;71.06;94948.94;5078573;28;20814;-70
2021/04/05 05:54:56;;;;;;;1.70;1.60;;;;;;;2.99;73.39;94947.59;5083345;28;20308;-69
2021/04/05 05:57:30;;;;;;;1.37;1.27;;;;;;;3.19;73.56;94942.94;5073235;28;20304;-69
2021/04/05 06:00:05;;;;;;;3.73;1.67;;;;;;;3.38;72.79;94941.88;5066377;28;20305;-69
2021/04/05 06:02:49;;;;;;;6.13;3.07;;;;;;;3.66;72.83;94951.13;5068787;28;20632;-69
2021/04/05 06:05:25;;;;;;;5.17;2.33;;;;;;;3.95;71.74;94944.69;5077520;28;20218;-69
2021/04/05 06:08:19;;;;;;;1.60;1.50;;;;;;;4.39;69.89;94939.13;5084168;28;20691;-70
2021/04/05 06:10:58;;;;;;;2.30;2.07;;;;;;;4.77;68.38;94925.41;5080300;28;20244;-69
2021/04/05 06:13:35;;;;;;;10.13;3.33;;;;;;;4.91;69.21;94912.63;5080402;28;20265;-70
2021/04/05 06:16:12;;;;;;;2.77;2.57;;;;;;;5.20;66.94;94905.00;5079085;28;20221;-69
2021/04/05 06:18:53;;;;;;;1.97;1.77;;;;;;;5.15;66.65;94902.09;5084278;28;20572;-70
2021/04/05 06:21:35;;;;;;;2.33;2.10;;;;;;;5.40;65.04;94898.41;5068234;28;20280;-69
2021/04/05 06:24:08;;;;;;;3.70;2.17;;;;;;;5.56;66.07;94899.28;5079248;28;20227;-69
2021/04/05 06:26:53;;;;;;;2.03;1.83;;;;;;;5.64;64.49;94891.41;5078470;28;20386;-70
2021/04/05 06:29:48;;;;;;;3.60;1.33;;;;;;;5.75;65.56;94888.38;5079426;28;20352;-69
2021/04/05 06:32:35;;;;;;;3.73;1.50;;;;;;;5.87;65.03;94880.97;5081197;28;20333;-69
2021/04/05 06:35:46;;;;;;;2.20;2.00;;;;;;;6.02;64.90;94884.47;5072835;28;20227;-69
2021/04/05 06:38:20;;;;;;;5.73;1.93;;;;;;;6.24;62.31;94894.16;5076837;28;20244;-69
2021/04/05 06:40:51;;;;;;;3.37;2.27;;;;;;;6.37;62.89;94877.81;5063672;28;20876;-69
2021/04/05 06:43:56;;;;;;;7.30;2.07;;;;;;;6.44;60.90;94863.03;5065297;28;20767;-69
2021/04/05 06:46:40;;;;;;;4.43;1.97;;;;;;;6.51;60.34;94863.94;5062005;28;20229;-69
2021/04/05 06:49:28;;;;;;;2.03;1.87;;;;;;;6.75;60.02;94867.31;5064408;28;20245;-69
2021/04/05 06:52:16;;;;;;;3.43;2.07;;;;;;;6.99;59.97;94861.00;5067851;28;20301;-69
2021/04/05 06:55:20;;;;;;;2.77;2.30;;;;;;;7.03;59.33;94846.50;5076150;28;20224;-69
2021/04/05 06:58:06;;;;;;;1.50;1.40;;;;;;;7.03;59.72;94852.56;5080144;28;20221;-69
2021/04/05 07:00:38;;;;;;;2.60;2.00;;;;;;;6.97;60.53;94829.69;5081396;28;20304;-70
2021/04/05 07:03:23;;;;;;;3.57;3.27;;;;;;;7.24;57.96;94843.16;5074391;28;20221;-69
2021/04/05 07:06:16;;;;;;;3.13;1.93;;;;;;;7.33;58.66;94831.56;5073169;28;20221;-69
2021/04/05 07:08:54;;;;;;;2.07;1.67;;;;;;;7.47;58.45;94833.31;5083681;28;20217;-69
2021/04/05 07:11:27;;;;;;;1.93;1.73;;;;;;;7.40;58.01;94821.94;5080642;28;20632;-69
2021/04/05 07:14:08;;;;;;;3.77;2.37;;;;;;;7.49;56.85;94831.31;5083103;28;20746;-69
2021/04/05 07:16:55;;;;;;;5.33;1.93;;;;;;;7.67;57.78;94829.09;5084963;28;20236;-69
2021/04/05 07:19:41;;;;;;;1.87;1.77;;;;;;;7.64;58.27;94800.59;5079443;28;20297;-69
2021/04/05 07:22:17;;;;;;;4.53;2.20;;;;;;;7.86;55.76;94816.34;5075631;28;20238;-69
2021/04/05 07:24:50;;;;;;;2.07;1.87;;;;;;;7.97;55.77;94808.00;5081484;28;20257;-69
2021/04/05 07:27:22;;;;;;;2.07;1.83;;;;;;;8.06;55.03;94798.16;5079354;28;20229;-69
2021/04/05 07:29:56;;;;;;;2.63;2.53;;;;;;;8.17;54.27;94797.66;5072577;28;20218;-69
2021/04/05 07:32:34;;;;;;;1.97;1.87;;;;;;;8.26;54.66;94802.56;5074764;28;20234;-69
2021/04/05 07:35:05;;;;;;;2.50;2.27;;;;;;;8.37;55.41;94776.78;5075259;28;20225;-69
2021/04/05 07:37:43;;;;;;;4.63;2.47;;;;;;;8.52;54.17;94786.22;5077688;28;20213;-68
2021/04/05 07:40:25;;;;;;;2.33;1.97;;;;;;;8.77;54.31;94783.09;5077967;28;20229;-69
2021/04/05 07:43:02;;;;;;;5.60;3.53;;;;;;;8.86;52.47;94773.22;5076306;28;20236;-69
2021/04/05 07:45:43;;;;;;;5.83;2.43;;;;;;;8.83;52.22;94777.88;5069298;28;20571;-70
2021/04/05 07:48:19;;;;;;;2.73;1.80;;;;;;;8.86;53.04;94763.53;5068781;28;20541;-69
2021/04/05 07:50:53;;;;;;;3.87;3.37;;;;;;;9.01;52.84;94781.81;5075128;28;20499;-69
2021/04/05 07:53:23;;;;;;;3.53;1.80;;;;;;;8.84;52.12;94779.50;5067672;28;20303;-70
2021/04/05 07:55:54;;;;;;;3.13;2.80;;;;;;;8.66;52.89;94750.28;5073458;28;20226;-69
2021/04/05 07:58:49;;;;;;;2.63;2.03;;;;;;;8.93;53.36;94784.59;5072819;28;20227;-70
2021/04/05 08:01:27;;;;;;;3.47;2.77;;;;;;;9.14;52.83;94773.97;5075874;28;20263;-69
2021/04/05 08:04:04;;;;;;;2.50;1.73;;;;;;;9.43;53.25;94764.97;5075744;28;20231;-69
2021/04/05 08:06:37;;;;;;;3.23;1.83;;;;;;;9.44;52.22;94776.31;5071746;28;20298;-70
2021/04/05 08:09:07;;;;;;;2.30;2.10;;;;;;;9.48;51.75;94757.28;5073623;28;20252;-70
2021/04/05 08:11:55;;;;;;;4.97;2.33;;;;;;;9.62;53.15;94771.31;5077620;28;20312;-69
2021/04/05 08:14:31;;;;;;;3.57;3.13;;;;;;;9.75;51.91;94754.69;5082287;28;20649;-70
2021/04/05 08:17:12;;;;;;;3.57;2.27;;;;;;;9.94;52.53;94754.72;5076166;28;20224;-69
2021/04/05 08:19:45;;;;;;;2.70;2.17;;;;;;;9.87;51.86;94767.06;5077442;28;20742;-69
2021/04/05 08:22:21;;;;;;;5.27;3.10;;;;;;;9.73;51.94;94768.06;5075767;28;20338;-70
2021/04/05 08:25:02;;;;;;;3.20;2.33;;;;;;;9.76;53.24;94767.66;5071030;28;20440;-69
2021/04/05 08:27:37;;;;;;;3.77;2.20;;;;;;;9.91;52.34;94755.13;5078986;28;20231;-69
2021/04/05 08:30:07;;;;;;;2.13;2.03;;;;;;;10.07;52.10;94737.28;5078333;28;20251;-70
2021/04/05 08:32:42;;;;;;;2.10;2.00;;;;;;;10.20;51.38;94738.09;5096643;28;20698;-68
2021/04/05 08:35:21;;;;;;;2.03;1.87;;;;;;;10.18;51.17;94741.94;5079797;28;20251;-69
2021/04/05 08:38:00;;;;;;;3.30;1.47;;;;;;;10.37;52.03;94738.50;5077268;28;20259;-69
2021/04/05 08:40:36;;;;;;;2.80;2.50;;;;;;;10.52;50.13;94747.03;5072979;28;20226;-69
2021/04/05 08:43:22;;;;;;;4.07;2.53;;;;;;;10.41;49.84;94738.91;5077162;28;20308;-69
2021/04/05 08:45:51;;;;;;;2.13;1.40;;;;;;;10.46;51.24;94732.00;5078336;28;20685;-70
2021/04/05 08:48:21;;;;;;;3.83;2.30;;;;;;;10.51;50.83;94721.66;5082475;28;20238;-70
2021/04/05 08:50:52;;;;;;;2.90;1.57;;;;;;;10.74;50.21;94729.09;5072821;28;21339;-70
2021/04/05 08:53:21;;;;;;;3.17;1.57;;;;;;;10.80;50.69;94716.91;5071911;28;20383;-69
2021/04/05 08:55:49;;;;;;;9.70;2.83;;;;;;;11.02;49.87;94728.81;5072882;28;20251;-70
2021/04/05 08:58:23;;;;;;;5.77;2.43;;;;;;;11.04;49.23;94697.72;5077882;28;20753;-70
2021/04/05 09:00:53;;;;;;;3.00;2.20;;;;;;;10.95;50.18;94704.25;5076322;28;20304;-69
2021/04/05 09:03:24;;;;;;;6.73;2.80;;;;;;;10.64;47.71;94727.91;5076725;28;20221;-69
2021/04/05 09:05:51;;;;;;;2.63;2.43;;;;;;;10.43;48.94;94700.78;5081383;28;20316;-69
2021/04/05 09:08:21;;;;;;;7.30;1.60;;;;;;;10.37;47.81;94721.88;5070359;28;20632;-69
2021/04/05 09:10:51;;;;;;;5.53;3.27;;;;;;;10.33;48.80;94713.56;5074073;28;20232;-70
2021/04/05 09:13:22;;;;;;;8.73;2.50;;;;;;;10.42;49.81;94727.34;5086630;28;20698;-69
2021/04/05 09:16:38;;;;;;;1.90;1.50;;;;;;;10.43;48.83;94684.94;5071706;28;20231;-69
2021/04/05 09:19:50;;;;;;;5.03;1.67;;;;;;;10.46;48.50;94678.44;5062288;28;20329;-69
2021/04/05 09:22:58;;;;;;;2.40;1.33;;;;;;;10.68;50.21;94700.09;5076013;28;20255;-69
2021/04/05 09:25:49;;;;;;;4.77;2.30;;;;;;;10.78;49.45;94668.78;5073616;28;20936;-69
2021/04/05 09:28:41;;;;;;;3.70;2.00;;;;;;;10.47;47.77;94701.97;5075848;28;20357;-69
2021/04/05 09:31:31;;;;;;;1.43;1.33;;;;;;;10.50;47.70;94671.72;5077660;28;20275;-69
2021/04/05 09:34:35;;;;;;;2.60;2.43;;;;;;;10.62;48.54;94682.47;5071677;28;20216;-69
2021/04/05 09:37:21;;;;;;;10.77;2.97;;;;;;;10.66;48.17;94662.56;5083887;28;20309;-69
2021/04/05 09:40:06;;;;;;;1.90;1.80;;;;;;;10.93;47.62;94647.41;5077177;28;20317;-69
2021/04/05 09:42:59;;;;;;;13.87;3.37;;;;;;;11.10;47.18;94672.31;5084158;28;20229;-69
2021/04/05 09:45:34;;;;;;;2.63;2.43;;;;;;;11.20;46.55;94656.81;5081080;28;20221;-69
2021/04/05 09:48:35;;;;;;;2.23;1.77;;;;;;;11.15;47.67;94650.53;5085962;28;21548;-69
2021/04/05 09:51:21;;;;;;;2.77;2.63;;;;;;;11.28;47.10;94658.41;5081141;28;20255;-70
2021/04/05 09:53:57;;;;;;;1.50;1.40;;;;;;;11.01;48.41;94650.63;5081168;28;20225;-69
2021/04/05 09:56:28;;;;;;;3.23;2.37;;;;;;;11.13;48.12;94620.91;5071695;28;20233;-69
2021/04/05 09:59:01;;;;;;;3.03;1.60;;;;;;;11.23;47.92;94653.75;5081669;28;20229;-69
2021/04/05 10:01:30;;;;;;;3.10;2.63;;;;;;;11.07;48.79;94633.94;5084975;28;20277;-68
2021/04/05 10:04:01;;;;;;;3.87;2.47;;;;;;;10.98;47.69;94640.50;5074037;28;20222;-70
2021/04/05 10:06:32;;;;;;;3.47;3.17;;;;;;;11.00;46.89;94641.09;5066224;28;20688;-69
2021/04/05 10:09:02;;;;;;;2.40;1.77;;;;;;;11.21;47.83;94634.66;5078059;28;21632;-70
2021/04/05 10:11:31;;;;;;;2.27;2.13;;;;;;;11.24;47.97;94626.31;5081797;28;20224;-69
2021/04/05 10:14:02;;;;;;;2.00;1.80;;;;;;;11.47;48.53;94609.09;5085545;28;20213;-69
2021/04/05 10:16:32;;;;;;;2.47;2.27;;;;;;;11.49;47.88;94620.25;5086059;28;20260;-69
2021/04/05 10:19:05;;;;;;;3.20;1.53;;;;;;;11.58;48.09;94625.06;5078301;28;20214;-69
2021/04/05 10:21:35;;;;;;;2.00;1.90;;;;;;;11.75;49.04;94613.97;5080879;28;20241;-69
2021/04/05 10:24:05;;;;;;;3.23;2.23;;;;;;;11.74;47.54;94607.88;5082204;28;20246;-69
2021/04/05 10:26:35;;;;;;;3.17;2.60;;;;;;;11.72;47.21;94612.56;5073974;28;21295;-69
2021/04/05 10:29:08;;;;;;;1.77;1.67;;;;;;;11.78;48.03;94616.16;5072561;28;20248;-69
2021/04/05 10:31:36;;;;;;;1.83;1.70;;;;;;;11.54;47.10;94612.50;5080449;28;20288;-69
2021/04/05 10:34:05;;;;;;;2.33;1.90;;;;;;;11.84;47.63;94576.50;5065355;28;20250;-69
2021/04/05 10:36:39;;;;;;;4.60;1.83;;;;;;;12.02;46.60;94609.28;5072524;28;20227;-69
2021/04/05 10:39:07;;;;;;;2.53;1.73;;;;;;;11.82;45.57;94594.41;5079322;28;20302;-70
2021/04/05 10:41:40;;;;;;;2.60;2.17;;;;;;;12.17;46.30;94584.09;5080040;28;20746;-69
2021/04/05 10:44:12;;;;;;;5.20;2.73;;;;;;;12.32;47.01;94593.50;5083286;28;20694;-69
2021/04/05 10:46:42;;;;;;;7.30;4.70;;;;;;;12.47;46.17;94570.13;5077410;28;20319;-69
2021/04/05 10:49:13;;;;;;;3.20;1.13;;;;;;;13.01;47.21;94571.06;5066513;28;20231;-70
2021/04/05 10:51:44;;;;;;;4.43;1.37;;;;;;;13.19;44.59;94578.97;5063335;28;20279;-70
2021/04/05 10:54:22;;;;;;;5.03;2.37;;;;;;;13.24;44.36;94504.09;5069291;28;20218;-71
2021/04/05 10:56:56;;;;;;;1.87;1.57;;;;;;;13.13;44.67;94553.34;5075250;28;20221;-70
2021/04/05 10:59:43;;;;;;;3.93;2.40;;;;;;;13.28;43.47;94559.06;5077917;28;20283;-70
2021/04/05 11:02:20;;;;;;;1.53;1.43;;;;;;;13.50;42.88;94537.31;5080238;28;20217;-70
2021/04/05 11:04:54;;;;;;;3.50;1.20;;;;;;;13.67;42.00;94556.81;5078780;28;20727;-69
2021/04/05 11:07:23;;;;;;;1.73;1.63;;;;;;;13.75;43.24;94561.78;5071063;28;20226;-70
2021/04/05 11:09:52;;;;;;;1.77;0.80;;;;;;;13.85;41.40;94527.53;5075010;28;20723;-70
2021/04/05 11:12:22;;;;;;;4.57;2.40;;;;;;;13.68;42.05;94508.06;5070682;28;20225;-69
2021/04/05 11:14:51;;;;;;;4.60;2.40;;;;;;;13.55;41.58;94535.59;5077252;28;20253;-71
2021/04/05 11:17:21;;;;;;;5.60;2.23;;;;;;;13.56;42.45;94504.59;5069887;28;20224;-70
2021/04/05 11:19:54;;;;;;;1.90;1.17;;;;;;;13.49;41.37;94496.75;5079903;28;20275;-69
2021/04/05 11:22:27;;;;;;;5.27;1.77;;;;;;;13.59;41.50;94528.00;5070971;28;20225;-69
2021/04/05 11:25:01;;;;;;;1.70;1.10;;;;;;;13.67;41.21;94527.66;5063877;28;20226;-70
2021/04/05 11:27:32;;;;;;;4.53;2.10;;;;;;;13.60;41.66;94501.25;5070647;28;20225;-70
2021/04/05 11:30:04;;;;;;;2.30;2.10;;;;;;;13.34;41.58;94491.91;5078669;28;20226;-70
2021/04/05 11:32:34;;;;;;;1.53;1.30;;;;;;;13.52;44.00;94458.38;5074236;28;20325;-69
2021/04/05 11:35:06;;;;;;;4.27;1.70;;;;;;;13.72;41.57;94458.84;5074969;28;20228;-69
2021/04/05 11:37:35;;;;;;;2.23;2.10;;;;;;;14.05;41.79;94460.03;5070904;28;20213;-70
2021/04/05 11:40:06;;;;;;;1.60;1.50;;;;;;;13.78;41.53;94473.81;5078973;28;20309;-70
2021/04/05 11:42:37;;;;;;;6.87;1.73;;;;;;;13.72;41.39;94471.28;5073107;28;20283;-69
2021/04/05 11:45:21;;;;;;;1.67;0.97;;;;;;;13.54;41.92;94486.28;5074654;28;20689;-69
2021/04/05 11:47:52;;;;;;;2.30;1.00;;;;;;;13.96;42.94;94467.56;5075209;28;20305;-70
2021/04/05 11:50:23;;;;;;;2.10;0.77;;;;;;;13.94;42.49;94473.09;5067579;28;20592;-67
2021/04/05 11:52:53;;;;;;;7.13;1.67;;;;;;;13.85;42.18;94442.66;5074784;28;20298;-69
2021/04/05 11:55:26;;;;;;;2.23;1.30;;;;;;;13.89;40.07;94462.38;5079638;28;20805;-70
2021/04/05 11:57:59;;;;;;;2.27;0.90;;;;;;;13.80;39.06;94468.25;5072688;28;20222;-70
2021/04/05 12:00:31;;;;;;;2.17;0.70;;;;;;;13.98;39.98;94470.78;5071123;28;20241;-70
2021/04/05 12:03:08;;;;;;;2.97;1.43;;;;;;;13.57;40.62;94463.81;5071884;28;20646;-70
2021/04/05 12:05:40;;;;;;;0.93;0.90;;;;;;;13.50;40.76;94484.31;5072097;28;20267;-71
2021/04/05 12:08:13;;;;;;;6.23;1.53;;;;;;;13.35;41.31;94440.53;5073081;28;20339;-71